Ana Sayfa
METAR-TAF:

METAR-TAF

Havaalanları :

Montgomery Field

San Diego, Kaliforniya, Amerika Birleşik Devletleri

Enlem: 32-48-52N, Boylam: 117-08-11W, yükseklik: 128 m

Güncel hava durumu gözlemi

Rapor saat 17:53 UTC de 9 dakika önce yapıldı.
Rüzgar batıdan 4 kt
Sıcaklık 17°C
Nem 72%
Basınç 1020 hPa
Görüş mesafesi: 16.1 km
1900 ft yükseklikte parçalı çok bulutlu

METAR: KMYF 091753Z 27004KT 10SM BKN019 17/12 A3011 RMK AO2 SLP193 T01670117 10167 20094 53020

Saat: 10:02 (18:02 UTC)


TAF: eksik

4.000'den fazla havaalanı için hava durumu gözlemleri ve tahminleri (METAR ve TAF raporları).

Kullanılabilir istasyonlar harita üzerinde sarı ve kırmızı noktalarla gösterilir.

İstasyonun adını görmek için fareyi noktanın üzerinde gezdirin.

Sonrasında hava gözlem ve tahminlerini görmek için tıklayın.

Haritayı değiştirmek için: yaklaştırmak için siyah artı işaretli yeşil düğmeye ve uzaklaştırmak için de eksi işaretli düğmeye hızla tıklayın; bitişik haritalar için yeşil okları kullanın.


METAR-TAF: